Glenwood Springs, CO (81601)

7:07 AM MDT on September 21, 2014 (GMT -0600)
Oak Meadows | Change Station
CLOSE
Current Station
Personal Weather Station
Location: Glenwood Springs, CO
Elevation: 7000 ft
Nearby Weather Stations
Active Advisory: Special Statement

Elev 7000 ft 39.44 °N, 107.32 °W | Updated 19 seconds ago

Partly Cloudy
Partly Cloudy
52.8 °F
Feels Like 52.8 °F
N
0.0
Wind Variable Wind from WSW
Gusts 0.0 mph

Today
High -- | Low -- °F
--% Chance of Precip.
Yesterday
High -- | Low -- °F
Precip. -- in
6:56 AM 7:07 PM
Waning Crescent, 7% visible
Pressure 30.08 in
Visibility 10.0 miles
Clouds Scattered Clouds 9000 ft
Dew Point 44 °F
Humidity 72%
Rainfall 0.00 in
Snow Depth 0 in , 0 in , 0 in
UV 0 out of 12
Pollen 5.10 out of 12
Air Quality Not available.
Flu Activity Not available.
METAR KRIL 211253Z AUTO 28003KT 10SM SCT090 13/07 A3027 RMK AO2 SLP184 T01330072

More Conditions Fewer Conditions

Pressure 30.08 in
Visibility 10.0 miles
Clouds Scattered Clouds 9000 ft
Dew Point 44 °F
Humidity 72%
Rainfall 0.00 in
Snow Depth 0 in , 0 in , 0 in
UV 0 out of 12
Pollen 5.10 out of 12
Air Quality Not available.
Flu Activity Not available.
METAR KRIL 211253Z AUTO 28003KT 10SM SCT090 13/07 A3027 RMK AO2 SLP184 T01330072

More Conditions Fewer Conditions

10-Day Weather Forecast

Almanac

Astronomy

Sep. 21, 2014 Rise Set
Actual Time 6:56 AM MDT 7:07 PM MDT
Civil Twilight 6:29 AM MDT 7:34 PM MDT
Nautical Twilight 5:57 AM MDT 8:06 PM MDT
Astronomical Twilight 5:25 AM MDT 8:38 PM MDT
Moon 4:32 AM MDT 5:45 PM MDT
Length of Visible Light 13h 05m
Length of Day
12h 11m
Tomorrow will be 2m 34s shorter.
Waning Crescent, 7% of the Moon is Illuminated
Today
Waning Crescent
Sep 24
New
Oct 1
First Quarter
Oct 8
Full
Oct 15
Last Quarter

Today's Extremes

State Highs State Lows

Community

WunderPhotos

Upload Photos

1,755,134 photos uploaded!

Nearby

Snow Depth

Station Depth Elevation
Mancos 0 in 10000 ft
Elk River 0 in 8700 ft
Trapper Lake 0 in 9700 ft
Mccoy Park 10 in 9480 ft
Apishapa 0 in 10000 ft

Earthquake Activity

City Distance Mag. Time & Date
No recent earthquake activity has been reported nearby.
Minimum magnitude displayed is 2.5.

Coastal Water Temperatures

Place Temperature
No Stations Reporting

Nearby Weather Stations